Time;durP1;ratioP1;P1;durP2;ratioP2;P2;SDS_P1;SDS_P2;PMS_P1;PMS_P2;Temp;Humidity;BMP_temperature;BMP_pressure;BME280_temperature;BME280_humidity;BME280_pressure;Samples;Min_cycle;Max_cycle;Signal;HPM_P1;HPM_P2
2022/01/24 00:00:59;;;;;;;8.10;6.10;;;;;;;;;;5150315;27;20058;-62
2022/01/24 00:03:25;;;;;;;12.30;5.80;;;;;;;;;;5146494;27;20043;-62
2022/01/24 00:05:51;;;;;;;8.70;6.45;;;;;;;;;;5148395;27;20074;-62
2022/01/24 00:08:17;;;;;;;7.30;6.07;;;;;;;;;;5146246;27;20092;-62
2022/01/24 00:10:46;;;;;;;9.77;6.72;;;;;;;;;;5145937;27;20039;-62
2022/01/24 00:13:57;;;;;;;7.43;6.22;;;;;;;;;;5136507;27;20088;-62
2022/01/24 00:16:22;;;;;;;10.50;6.85;;;;;;;;;;5144929;27;20070;-61
2022/01/24 00:26:55;;;;;;;7.57;6.10;;;;;;;;;;5145349;27;20053;-62
2022/01/24 00:29:22;;;;;;;6.93;5.93;;;;;;;;;;5145807;27;20035;-61
2022/01/24 00:31:48;;;;;;;8.75;5.93;;;;;;;;;;5148245;27;20513;-61
2022/01/24 00:34:15;;;;;;;7.93;7.00;;;;;;;;;;5146113;27;20039;-61
2022/01/24 00:36:42;;;;;;;8.68;6.07;;;;;;;;;;5145201;27;20069;-61
2022/01/24 00:39:09;;;;;;;7.18;6.18;;;;;;;;;;5161079;27;20041;-61
2022/01/24 00:46:59;;;;;;;7.43;6.25;;;;;;;;;;5145566;27;20106;-61
2022/01/24 00:54:51;;;;;;;7.03;5.97;;;;;;;;;;5145808;27;20130;-62
2022/01/24 00:57:18;;;;;;;8.90;7.03;;;;;;;;;;5145743;27;20035;-61
2022/01/24 00:59:44;;;;;;;8.15;6.65;;;;;;;;;;5147259;27;20047;-61
2022/01/24 01:02:12;;;;;;;7.53;6.13;;;;;;;;;;5145406;27;20046;-62
2022/01/24 01:07:54;;;;;;;6.45;5.43;;;;;;;;;;5122904;27;20094;-62
2022/01/24 01:18:35;;;;;;;6.22;5.32;;;;;;;;;;5148300;27;20061;-62
2022/01/24 01:23:32;;;;;;;7.60;5.95;;;;;;;;;;5165460;27;20425;-62
2022/01/24 01:26:02;;;;;;;7.13;5.75;;;;;;;;;;5166064;27;20043;-61
2022/01/24 01:28:29;;;;;;;6.68;5.47;;;;;;;;;;5164017;27;20043;-62
2022/01/24 01:31:00;;;;;;;6.65;5.22;;;;;;;;;;5145488;27;20039;-62
2022/01/24 01:55:37;;;;;;;6.85;5.28;;;;;;;;;;5145355;28;20442;-61
2022/01/24 01:57:34;;;;;;;;;;;;;;;;;;5139587;27;20055;-62
2022/01/24 02:00:00;;;;;;;6.55;5.35;;;;;;;;;;5165621;27;19919;-62
2022/01/24 02:02:26;;;;;;;6.50;4.72;;;;;;;;;;5165823;27;20043;-61
2022/01/24 02:04:52;;;;;;;7.50;5.50;;;;;;;;;;5148019;27;20043;-61
2022/01/24 02:07:18;;;;;;;7.60;5.40;;;;;;;;;;5144267;28;20053;-62
2022/01/24 02:09:46;;;;;;;7.68;5.50;;;;;;;;;;5163115;27;20035;-61
2022/01/24 02:12:12;;;;;;;7.18;5.43;;;;;;;;;;5165634;27;20094;-62
2022/01/24 02:14:45;;;;;;;7.03;5.47;;;;;;;;;;5165605;27;20047;-62
2022/01/24 02:17:17;;;;;;;6.53;4.75;;;;;;;;;;5165788;27;20043;-62
2022/01/24 02:25:21;;;;;;;6.53;5.53;;;;;;;;;;5148756;27;20126;-63
2022/01/24 02:27:45;;;;;;;6.43;5.00;;;;;;;;;;5165063;27;20129;-61
2022/01/24 02:32:57;;;;;;;7.13;5.38;;;;;;;;;;5169262;27;20095;-61
2022/01/24 02:35:23;;;;;;;8.50;4.88;;;;;;;;;;5168711;27;20050;-62
2022/01/24 02:37:49;;;;;;;7.15;5.07;;;;;;;;;;5167447;27;20090;-63
2022/01/24 02:40:18;;;;;;;7.18;5.40;;;;;;;;;;5169764;27;20047;-61
2022/01/24 02:48:28;;;;;;;8.52;5.03;;;;;;;;;;5148009;27;20405;-62
2022/01/24 02:53:25;;;;;;;8.73;5.00;;;;;;;;;;5147998;27;20054;-61
2022/01/24 02:55:52;;;;;;;8.90;4.47;;;;;;;;;;5150612;27;20123;-61
2022/01/24 02:58:19;;;;;;;8.18;4.90;;;;;;;;;;5168370;27;20059;-63
2022/01/24 03:00:46;;;;;;;8.60;4.97;;;;;;;;;;5168937;27;20050;-62
2022/01/24 03:03:13;;;;;;;7.28;5.40;;;;;;;;;;5167601;27;20295;-62
2022/01/24 03:05:39;;;;;;;8.05;4.95;;;;;;;;;;5166845;27;20069;-61
2022/01/24 03:08:06;;;;;;;7.50;5.03;;;;;;;;;;5148068;27;20071;-61
2022/01/24 03:11:06;;;;;;;6.53;5.43;;;;;;;;;;5146460;27;20051;-62
2022/01/24 03:15:52;;;;;;;5.95;4.60;;;;;;;;;;5149916;27;20107;-61
2022/01/24 03:18:19;;;;;;;8.40;5.47;;;;;;;;;;5168529;27;20039;-62
2022/01/24 03:20:45;;;;;;;6.45;5.53;;;;;;;;;;5167573;27;20340;-61
2022/01/24 03:23:12;;;;;;;6.80;5.28;;;;;;;;;;5168082;27;20043;-61
2022/01/24 03:25:38;;;;;;;7.28;5.90;;;;;;;;;;5168110;27;20047;-61
2022/01/24 03:28:05;;;;;;;7.15;5.30;;;;;;;;;;5126860;28;20292;-61
2022/01/24 03:30:32;;;;;;;9.45;5.85;;;;;;;;;;5126875;28;20137;-61
2022/01/24 03:32:58;;;;;;;6.72;5.65;;;;;;;;;;5125703;28;20055;-61
2022/01/24 03:35:25;;;;;;;10.23;5.15;;;;;;;;;;5125934;28;20043;-61
2022/01/24 03:37:51;;;;;;;7.18;5.65;;;;;;;;;;5164352;27;20459;-61
2022/01/24 03:40:17;;;;;;;11.18;5.72;;;;;;;;;;5133076;27;20040;-61
2022/01/24 03:42:43;;;;;;;9.32;5.95;;;;;;;;;;5146870;27;20043;-62
2022/01/24 03:45:11;;;;;;;9.00;5.75;;;;;;;;;;5147279;27;20064;-60
2022/01/24 03:50:08;;;;;;;8.48;6.10;;;;;;;;;;5167021;27;20410;-62
2022/01/24 03:52:34;;;;;;;7.65;5.88;;;;;;;;;;5167578;27;20462;-62
2022/01/24 03:55:01;;;;;;;10.52;5.90;;;;;;;;;;5167776;27;20035;-62
2022/01/24 03:57:28;;;;;;;8.98;6.10;;;;;;;;;;5152358;27;20086;-62
2022/01/24 03:59:54;;;;;;;9.18;6.50;;;;;;;;;;5147137;27;20050;-62
2022/01/24 04:02:23;;;;;;;8.55;6.60;;;;;;;;;;5146587;27;20043;-62
2022/01/24 04:04:49;;;;;;;8.52;6.20;;;;;;;;;;5147842;27;20081;-62
2022/01/24 04:07:15;;;;;;;10.93;6.45;;;;;;;;;;5145988;27;20063;-62
2022/01/24 04:09:42;;;;;;;11.27;7.28;;;;;;;;;;5147008;27;20045;-62
2022/01/24 04:12:09;;;;;;;10.45;7.20;;;;;;;;;;5146929;27;20047;-61
2022/01/24 04:22:19;;;;;;;11.82;7.72;;;;;;;;;;5166331;27;20075;-62
2022/01/24 04:24:46;;;;;;;10.38;7.43;;;;;;;;;;5160972;27;20051;-62
2022/01/24 04:27:13;;;;;;;8.40;7.05;;;;;;;;;;5146158;27;20046;-62
2022/01/24 04:29:39;;;;;;;9.52;7.20;;;;;;;;;;5146597;27;20163;-62
2022/01/24 04:32:06;;;;;;;11.80;8.48;;;;;;;;;;5145810;27;20494;-61
2022/01/24 04:34:32;;;;;;;11.88;7.80;;;;;;;;;;5155661;27;20439;-61
2022/01/24 04:36:58;;;;;;;12.38;9.15;;;;;;;;;;5166001;27;20060;-62
2022/01/24 04:39:24;;;;;;;10.60;7.95;;;;;;;;;;5167036;27;20099;-62
2022/01/24 04:41:54;;;;;;;11.55;8.40;;;;;;;;;;5166840;27;20094;-62
2022/01/24 04:54:54;;;;;;;12.43;8.68;;;;;;;;;;5157554;27;20043;-62
2022/01/24 04:57:24;;;;;;;13.68;10.20;;;;;;;;;;5166216;27;20035;-62
2022/01/24 04:59:51;;;;;;;11.75;9.15;;;;;;;;;;5166661;27;20039;-62
2022/01/24 05:02:18;;;;;;;14.67;9.43;;;;;;;;;;5166854;27;20634;-62
2022/01/24 05:04:44;;;;;;;12.90;9.48;;;;;;;;;;5152768;27;20046;-61
2022/01/24 05:07:10;;;;;;;16.60;10.13;;;;;;;;;;5145035;27;20051;-61
2022/01/24 05:09:42;;;;;;;14.15;9.80;;;;;;;;;;5145596;27;20043;-61
2022/01/24 05:12:18;;;;;;;17.10;10.10;;;;;;;;;;5145774;27;20051;-61
2022/01/24 05:25:44;;;;;;;15.27;11.25;;;;;;;;;;5146219;27;20069;-61
2022/01/24 05:28:10;;;;;;;13.98;10.02;;;;;;;;;;5148878;27;20151;-61
2022/01/24 05:30:36;;;;;;;15.40;10.95;;;;;;;;;;5154666;27;20113;-61
2022/01/24 05:33:02;;;;;;;15.98;10.93;;;;;;;;;;5152313;27;20047;-61
2022/01/24 05:35:28;;;;;;;15.43;11.05;;;;;;;;;;5144680;28;20422;-61
2022/01/24 05:37:54;;;;;;;16.23;12.00;;;;;;;;;;5145041;28;20043;-61
2022/01/24 05:40:20;;;;;;;18.35;11.27;;;;;;;;;;5145983;27;20090;-61
2022/01/24 05:42:46;;;;;;;16.55;11.38;;;;;;;;;;5145027;28;20043;-61
2022/01/24 05:45:12;;;;;;;17.75;12.00;;;;;;;;;;5163510;27;20046;-61
2022/01/24 05:47:38;;;;;;;16.80;11.68;;;;;;;;;;5157449;27;20066;-62
2022/01/24 05:50:05;;;;;;;19.35;11.75;;;;;;;;;;5144798;27;20035;-61
2022/01/24 05:52:31;;;;;;;18.55;12.07;;;;;;;;;;5139764;28;20051;-62
2022/01/24 05:54:57;;;;;;;22.15;12.93;;;;;;;;;;5151348;27;20039;-62
2022/01/24 05:57:23;;;;;;;18.88;11.57;;;;;;;;;;5147034;27;20035;-62
2022/01/24 05:59:50;;;;;;;17.60;11.45;;;;;;;;;;5149141;27;20057;-61
2022/01/24 06:02:16;;;;;;;20.45;13.00;;;;;;;;;;5147884;27;20082;-61
2022/01/24 06:04:42;;;;;;;18.05;12.02;;;;;;;;;;5160314;27;20073;-62
2022/01/24 06:07:08;;;;;;;17.85;11.55;;;;;;;;;;5169334;27;20493;-61
2022/01/24 06:09:34;;;;;;;18.20;12.45;;;;;;;;;;5165693;27;20047;-62
2022/01/24 06:12:00;;;;;;;19.50;12.32;;;;;;;;;;5156931;27;20043;-62
2022/01/24 06:14:26;;;;;;;17.88;12.05;;;;;;;;;;5149613;27;20043;-62
2022/01/24 06:16:53;;;;;;;18.42;12.85;;;;;;;;;;5148736;27;20440;-62
2022/01/24 06:19:19;;;;;;;17.25;12.40;;;;;;;;;;5148872;27;20114;-62
2022/01/24 06:21:45;;;;;;;19.23;12.05;;;;;;;;;;5152834;27;20106;-61
2022/01/24 06:24:11;;;;;;;18.05;11.80;;;;;;;;;;5169603;27;20035;-61
2022/01/24 06:26:39;;;;;;;19.02;13.02;;;;;;;;;;5169568;27;20082;-61
2022/01/24 06:29:05;;;;;;;17.08;12.15;;;;;;;;;;5167763;27;20071;-61
2022/01/24 06:31:31;;;;;;;18.23;12.32;;;;;;;;;;5137903;27;20043;-62
2022/01/24 06:33:57;;;;;;;20.15;12.40;;;;;;;;;;5148537;27;20055;-62
2022/01/24 06:36:24;;;;;;;17.77;11.77;;;;;;;;;;5148110;27;20046;-62
2022/01/24 06:38:51;;;;;;;18.85;12.63;;;;;;;;;;5148615;27;20039;-61
2022/01/24 06:41:31;;;;;;;18.58;11.77;;;;;;;;;;5167978;27;20122;-61
2022/01/24 06:43:58;;;;;;;18.38;12.18;;;;;;;;;;5169216;27;20055;-61
2022/01/24 06:46:24;;;;;;;18.38;11.80;;;;;;;;;;5169028;27;20050;-61
2022/01/24 06:48:50;;;;;;;17.65;11.68;;;;;;;;;;5168947;27;20043;-61
2022/01/24 06:51:18;;;;;;;20.17;12.57;;;;;;;;;;5166627;27;20046;-61
2022/01/24 06:53:44;;;;;;;16.90;11.45;;;;;;;;;;5168797;27;20094;-62
2022/01/24 06:56:10;;;;;;;16.98;12.27;;;;;;;;;;5168717;27;20401;-61
2022/01/24 06:58:37;;;;;;;20.98;12.70;;;;;;;;;;5168745;27;20072;-61
2022/01/24 07:01:04;;;;;;;22.17;14.13;;;;;;;;;;5151804;27;20035;-61
2022/01/24 07:03:30;;;;;;;20.85;13.18;;;;;;;;;;5148003;27;20054;-61
2022/01/24 07:05:56;;;;;;;19.25;12.38;;;;;;;;;;5147460;27;20041;-61
2022/01/24 07:08:22;;;;;;;20.30;12.65;;;;;;;;;;5147787;27;20047;-61
2022/01/24 07:10:48;;;;;;;19.63;12.57;;;;;;;;;;5161972;27;20121;-61
2022/01/24 07:13:15;;;;;;;20.33;13.07;;;;;;;;;;5168533;27;20058;-61
2022/01/24 07:15:48;;;;;;;19.98;12.10;;;;;;;;;;5167163;27;20563;-61
2022/01/24 07:18:57;;;;;;;21.17;12.73;;;;;;;;;;5168426;27;20058;-61
2022/01/24 07:21:03;;;;;;;18.83;12.73;;;;;;;;;;5149191;27;20047;-61
2022/01/24 07:23:29;;;;;;;;;;;;;;;;;;5147965;27;20070;-60
2022/01/24 07:25:55;;;;;;;20.88;12.65;;;;;;;;;;5147252;27;19919;-61
2022/01/24 07:28:21;;;;;;;17.60;11.27;;;;;;;;;;5147219;27;20407;-62
2022/01/24 07:30:47;;;;;;;17.15;11.57;;;;;;;;;;5161265;27;20085;-61
2022/01/24 07:33:16;;;;;;;19.92;12.63;;;;;;;;;;5168334;27;20047;-61
2022/01/24 07:35:44;;;;;;;19.02;11.65;;;;;;;;;;5167592;27;20094;-61
2022/01/24 07:38:10;;;;;;;16.88;11.88;;;;;;;;;;5166959;27;20049;-61
2022/01/24 07:40:40;;;;;;;18.90;12.02;;;;;;;;;;5154041;27;20103;-61
2022/01/24 07:45:35;;;;;;;18.23;11.85;;;;;;;;;;5147082;27;20043;-61
2022/01/24 07:48:01;;;;;;;18.20;11.30;;;;;;;;;;5147023;27;20402;-62
2022/01/24 07:50:28;;;;;;;19.98;12.40;;;;;;;;;;5146599;27;20111;-60
2022/01/24 07:52:55;;;;;;;17.67;11.73;;;;;;;;;;5153394;27;20126;-60
2022/01/24 07:55:21;;;;;;;17.40;11.73;;;;;;;;;;5146845;27;20076;-61
2022/01/24 07:57:47;;;;;;;17.67;12.02;;;;;;;;;;5146788;27;20134;-61
2022/01/24 08:00:14;;;;;;;16.60;11.68;;;;;;;;;;5145606;27;20051;-61
2022/01/24 08:02:40;;;;;;;19.38;11.65;;;;;;;;;;5145829;27;20069;-61
2022/01/24 08:05:07;;;;;;;17.73;11.55;;;;;;;;;;5146585;27;20047;-62
2022/01/24 08:07:33;;;;;;;18.90;11.13;;;;;;;;;;5145695;27;20043;-61
2022/01/24 08:09:59;;;;;;;17.80;11.35;;;;;;;;;;5145107;27;20079;-62
2022/01/24 08:12:25;;;;;;;19.83;11.73;;;;;;;;;;5146909;27;20065;-62
2022/01/24 08:14:52;;;;;;;17.00;10.65;;;;;;;;;;5146089;27;20043;-62
2022/01/24 08:17:18;;;;;;;15.82;11.07;;;;;;;;;;5147168;27;20108;-62
2022/01/24 08:19:45;;;;;;;15.45;10.27;;;;;;;;;;5162140;27;20485;-61
2022/01/24 08:22:12;;;;;;;14.88;10.98;;;;;;;;;;5146428;27;20051;-61
2022/01/24 08:24:39;;;;;;;14.85;10.85;;;;;;;;;;5147429;27;20064;-62
2022/01/24 08:27:05;;;;;;;15.05;10.25;;;;;;;;;;5145974;27;20046;-62
2022/01/24 08:29:31;;;;;;;17.17;11.10;;;;;;;;;;5151857;27;20150;-62
2022/01/24 08:31:57;;;;;;;15.82;9.93;;;;;;;;;;5166526;27;20039;-61
2022/01/24 08:34:23;;;;;;;16.00;9.88;;;;;;;;;;5151130;27;20039;-61
2022/01/24 08:36:49;;;;;;;12.95;9.88;;;;;;;;;;5145357;27;20054;-61
2022/01/24 08:39:15;;;;;;;17.23;10.18;;;;;;;;;;5156576;27;20058;-61
2022/01/24 08:46:45;;;;;;;16.25;10.80;;;;;;;;;;5145733;27;20051;-62
2022/01/24 08:49:11;;;;;;;16.25;10.73;;;;;;;;;;5146592;27;20051;-62
2022/01/24 08:51:37;;;;;;;14.45;10.25;;;;;;;;;;5144707;27;20106;-61
2022/01/24 08:54:04;;;;;;;17.00;11.40;;;;;;;;;;5146015;27;20094;-61
2022/01/24 08:56:30;;;;;;;16.05;11.38;;;;;;;;;;5145412;27;20050;-62
2022/01/24 08:58:57;;;;;;;19.75;11.77;;;;;;;;;;5149794;27;20062;-61
2022/01/24 09:01:23;;;;;;;16.60;11.07;;;;;;;;;;5145291;27;20050;-62
2022/01/24 09:03:49;;;;;;;15.07;11.05;;;;;;;;;;5145477;27;20031;-63
2022/01/24 09:06:18;;;;;;;18.45;11.48;;;;;;;;;;5134969;27;20044;-67
2022/01/24 09:08:44;;;;;;;20.48;12.38;;;;;;;;;;5143322;27;20043;-66
2022/01/24 09:11:10;;;;;;;18.10;11.32;;;;;;;;;;5144492;27;20111;-66
2022/01/24 09:13:37;;;;;;;20.60;11.38;;;;;;;;;;5145507;27;20063;-65
2022/01/24 09:16:03;;;;;;;19.48;11.95;;;;;;;;;;5143659;27;20046;-65
2022/01/24 09:18:30;;;;;;;18.27;12.25;;;;;;;;;;5148719;27;20083;-66
2022/01/24 09:20:57;;;;;;;19.92;12.18;;;;;;;;;;5143819;27;20482;-66
2022/01/24 09:23:23;;;;;;;16.70;12.00;;;;;;;;;;5144949;28;20031;-67
2022/01/24 09:25:50;;;;;;;17.70;11.70;;;;;;;;;;5145269;27;20078;-66
2022/01/24 09:28:17;;;;;;;19.63;12.25;;;;;;;;;;5145649;27;20063;-66
2022/01/24 09:30:43;;;;;;;35.47;13.00;;;;;;;;;;5145090;27;20039;-66
2022/01/24 09:33:13;;;;;;;17.35;11.85;;;;;;;;;;5149622;27;20035;-66
2022/01/24 09:35:40;;;;;;;21.88;13.73;;;;;;;;;;5149183;27;20039;-66
2022/01/24 09:38:06;;;;;;;22.43;15.27;;;;;;;;;;5150307;27;20066;-66
2022/01/24 09:40:32;;;;;;;24.38;14.55;;;;;;;;;;5149591;27;20064;-66
2022/01/24 09:42:58;;;;;;;21.20;14.73;;;;;;;;;;5149163;27;20067;-66
2022/01/24 09:45:25;;;;;;;22.33;15.52;;;;;;;;;;5142723;27;20057;-66
2022/01/24 09:47:52;;;;;;;23.73;15.90;;;;;;;;;;5145676;27;20074;-66
2022/01/24 09:50:19;;;;;;;22.77;15.95;;;;;;;;;;5147443;27;20039;-66
2022/01/24 09:52:46;;;;;;;25.50;16.42;;;;;;;;;;5152115;27;20071;-66
2022/01/24 09:55:13;;;;;;;26.35;15.95;;;;;;;;;;5148145;27;20041;-66
2022/01/24 09:57:43;;;;;;;22.25;15.85;;;;;;;;;;5153242;27;20106;-66
2022/01/24 10:00:11;;;;;;;28.35;16.58;;;;;;;;;;5151753;27;20039;-67
2022/01/24 10:02:37;;;;;;;;;;;;;;;;;;5145278;27;20043;-66
2022/01/24 10:05:18;;;;;;;25.83;17.10;;;;;;;;;;5142743;27;19919;-66
2022/01/24 10:07:55;;;;;;;27.35;17.52;;;;;;;;;;5151487;27;20043;-66
2022/01/24 10:10:27;;;;;;;29.13;19.48;;;;;;;;;;5149064;27;20046;-66
2022/01/24 10:18:05;;;;;;;33.50;21.35;;;;;;;;;;5145951;27;20117;-66
2022/01/24 10:20:33;;;;;;;33.90;21.25;;;;;;;;;;5147328;27;20176;-66
2022/01/24 10:23:11;;;;;;;30.88;19.45;;;;;;;;;;5148372;27;20047;-68
2022/01/24 10:25:50;;;;;;;32.97;20.42;;;;;;;;;;5145819;27;20518;-67
2022/01/24 10:28:51;;;;;;;30.33;19.35;;;;;;;;;;5145092;27;20074;-60
2022/01/24 10:31:21;;;;;;;31.98;20.45;;;;;;;;;;5077746;28;20090;-65
2022/01/24 10:33:51;;;;;;;33.75;22.50;;;;;;;;;;5082680;28;20049;-60
2022/01/24 10:36:38;;;;;;;38.10;23.00;;;;;;;;;;5078419;28;20036;-60
2022/01/24 10:39:22;;;;;;;38.88;22.65;;;;;;;;;;5064276;28;20048;-62
2022/01/24 10:42:22;;;;;;;40.55;23.55;;;;;;;;;;5077635;28;20070;-60
2022/01/24 10:44:49;;;;;;;37.75;23.05;;;;;;;;;;5077735;28;20055;-64
2022/01/24 10:47:22;;;;;;;38.70;23.30;;;;;;;;;;5082411;28;20033;-63
2022/01/24 10:49:48;;;;;;;44.53;25.98;;;;;;;;;;5086866;28;20053;-64
2022/01/24 10:52:18;;;;;;;36.58;19.95;;;;;;;;;;5078192;28;20072;-61
2022/01/24 10:54:45;;;;;;;36.58;22.73;;;;;;;;;;5077889;28;20040;-60
2022/01/24 10:57:20;;;;;;;40.13;24.73;;;;;;;;;;5080134;28;20043;-59
2022/01/24 10:59:46;;;;;;;36.72;22.88;;;;;;;;;;5084720;28;20313;-61
2022/01/24 11:02:15;;;;;;;39.88;23.48;;;;;;;;;;5083061;28;20063;-59
2022/01/24 11:04:41;;;;;;;44.00;25.45;;;;;;;;;;5096965;27;20082;-63
2022/01/24 11:07:07;;;;;;;39.13;23.55;;;;;;;;;;5139114;27;20133;-61
2022/01/24 11:09:34;;;;;;;39.53;24.25;;;;;;;;;;5147767;27;20106;-61
2022/01/24 11:12:02;;;;;;;45.85;24.73;;;;;;;;;;5146695;27;20090;-61
2022/01/24 11:14:31;;;;;;;42.30;25.73;;;;;;;;;;5151534;27;20042;-63
2022/01/24 11:16:58;;;;;;;46.65;27.73;;;;;;;;;;5147376;27;20074;-64
2022/01/24 11:19:33;;;;;;;44.33;26.98;;;;;;;;;;5146660;27;20054;-64
2022/01/24 11:22:00;;;;;;;48.80;27.83;;;;;;;;;;5148430;27;20070;-64
2022/01/24 11:24:37;;;;;;;41.05;22.60;;;;;;;;;;5151831;27;20035;-62
2022/01/24 11:27:04;;;;;;;39.70;25.10;;;;;;;;;;5138731;27;20050;-60
2022/01/24 11:29:30;;;;;;;43.30;25.58;;;;;;;;;;5143246;27;20070;-66
2022/01/24 11:32:03;;;;;;;43.65;25.15;;;;;;;;;;5162697;27;20066;-62
2022/01/24 11:34:37;;;;;;;42.33;25.00;;;;;;;;;;5145559;27;20042;-61
2022/01/24 11:37:03;;;;;;;42.03;24.55;;;;;;;;;;5143413;27;20035;-64
2022/01/24 11:39:30;;;;;;;41.95;24.92;;;;;;;;;;5155129;27;20035;-65
2022/01/24 11:41:56;;;;;;;44.95;26.05;;;;;;;;;;5140258;27;20054;-61
2022/01/24 11:44:23;;;;;;;42.22;27.05;;;;;;;;;;5142372;27;20039;-63
2022/01/24 11:46:55;;;;;;;46.38;24.80;;;;;;;;;;5144756;27;20047;-60
2022/01/24 11:49:25;;;;;;;44.28;25.63;;;;;;;;;;5146516;27;20046;-66
2022/01/24 11:52:13;;;;;;;41.70;26.13;;;;;;;;;;5144756;27;20039;-68
2022/01/24 11:57:42;;;;;;;43.33;24.55;;;;;;;;;;5133460;27;20066;-67
2022/01/24 12:00:08;;;;;;;45.15;26.80;;;;;;;;;;5146230;27;20047;-68
2022/01/24 12:02:42;;;;;;;46.85;27.40;;;;;;;;;;5146625;27;20573;-67
2022/01/24 12:05:11;;;;;;;44.22;24.55;;;;;;;;;;5147803;27;20039;-68
2022/01/24 12:07:42;;;;;;;43.58;26.05;;;;;;;;;;5152695;27;20134;-67
2022/01/24 12:10:33;;;;;;;44.60;25.63;;;;;;;;;;5146659;27;20039;-68
2022/01/24 12:13:02;;;;;;;46.33;27.17;;;;;;;;;;5146958;27;20043;-67
2022/01/24 12:15:37;;;;;;;41.28;25.38;;;;;;;;;;5147910;27;20047;-67
2022/01/24 12:18:11;;;;;;;35.38;23.85;;;;;;;;;;5146372;27;20162;-67
2022/01/24 12:20:37;;;;;;;35.92;22.52;;;;;;;;;;5146061;27;20055;-67
2022/01/24 12:23:24;;;;;;;36.03;22.30;;;;;;;;;;5146033;27;20058;-67
2022/01/24 12:25:54;;;;;;;33.75;20.58;;;;;;;;;;5145599;27;20126;-68
2022/01/24 12:28:23;;;;;;;32.08;20.20;;;;;;;;;;5145548;27;20095;-68
2022/01/24 12:31:04;;;;;;;34.58;21.15;;;;;;;;;;5141367;27;20167;-67
2022/01/24 12:33:30;;;;;;;40.67;21.23;;;;;;;;;;5144976;27;20559;-67
2022/01/24 12:35:56;;;;;;;32.97;20.65;;;;;;;;;;5143112;27;20077;-70
2022/01/24 12:38:22;;;;;;;33.63;20.92;;;;;;;;;;5144172;27;20042;-64
2022/01/24 12:40:49;;;;;;;39.80;22.58;;;;;;;;;;5137241;27;20089;-63
2022/01/24 12:43:30;;;;;;;31.73;19.88;;;;;;;;;;5144608;27;20123;-65
2022/01/24 12:48:41;;;;;;;36.25;22.10;;;;;;;;;;5143994;27;20062;-60
2022/01/24 12:51:07;;;;;;;33.95;21.45;;;;;;;;;;5143315;27;20066;-59
2022/01/24 12:53:38;;;;;;;31.75;20.58;;;;;;;;;;5139367;27;20062;-61
2022/01/24 12:56:11;;;;;;;37.58;21.52;;;;;;;;;;5144253;27;20039;-61
2022/01/24 12:58:39;;;;;;;34.80;20.63;;;;;;;;;;5140209;27;20066;-62
2022/01/24 13:01:18;;;;;;;36.88;22.88;;;;;;;;;;5143566;27;20043;-61
2022/01/24 13:03:52;;;;;;;35.97;21.30;;;;;;;;;;5143675;27;20043;-62
2022/01/24 13:06:19;;;;;;;36.60;20.77;;;;;;;;;;5147009;27;20046;-62
2022/01/24 13:09:11;;;;;;;33.80;20.53;;;;;;;;;;5148271;27;20043;-62
2022/01/24 13:11:45;;;;;;;31.48;19.38;;;;;;;;;;5077583;28;20380;-63
2022/01/24 13:14:15;;;;;;;33.33;20.80;;;;;;;;;;5079326;28;20040;-60
2022/01/24 13:22:24;;;;;;;37.33;22.65;;;;;;;;;;5080235;28;20048;-61
2022/01/24 13:25:07;;;;;;;33.88;20.75;;;;;;;;;;5061519;28;20101;-61
2022/01/24 13:27:36;;;;;;;33.17;20.85;;;;;;;;;;5080925;28;20044;-61
2022/01/24 13:30:04;;;;;;;35.33;21.20;;;;;;;;;;5079395;28;20079;-61
2022/01/24 13:32:30;;;;;;;;;;;;;;;;;;5081082;28;20055;-61
2022/01/24 13:35:14;;;;;;;32.47;20.70;;;;;;;;;;5056183;28;19960;-62
2022/01/24 13:37:40;;;;;;;38.45;22.75;;;;;;;;;;5063615;28;20083;-60
2022/01/24 13:40:07;;;;;;;36.20;22.90;;;;;;;;;;5076997;28;20040;-61
2022/01/24 13:42:36;;;;;;;37.78;22.52;;;;;;;;;;5078440;28;20640;-60
2022/01/24 13:45:03;;;;;;;36.95;23.23;;;;;;;;;;5080283;28;20091;-62
2022/01/24 13:47:29;;;;;;;35.30;21.95;;;;;;;;;;5082112;28;20128;-61
2022/01/24 13:49:55;;;;;;;33.65;21.98;;;;;;;;;;5145108;28;20095;-60
2022/01/24 13:52:24;;;;;;;37.10;23.15;;;;;;;;;;5144098;27;20069;-62
2022/01/24 13:54:51;;;;;;;33.90;21.50;;;;;;;;;;5144818;27;20495;-60
2022/01/24 13:57:18;;;;;;;34.63;21.85;;;;;;;;;;5144671;27;20071;-60
2022/01/24 13:59:44;;;;;;;38.03;21.55;;;;;;;;;;5144558;28;20214;-63
2022/01/24 14:02:13;;;;;;;35.40;20.95;;;;;;;;;;5144344;28;20130;-65
2022/01/24 14:04:40;;;;;;;32.85;21.52;;;;;;;;;;5138887;27;20079;-60
2022/01/24 14:07:08;;;;;;;33.35;20.08;;;;;;;;;;5141997;27;20078;-60
2022/01/24 14:09:34;;;;;;;35.75;20.33;;;;;;;;;;5144594;28;20035;-60
2022/01/24 14:12:01;;;;;;;34.67;20.67;;;;;;;;;;5139102;27;20067;-57
2022/01/24 14:14:37;;;;;;;35.33;22.15;;;;;;;;;;5142253;28;20043;-60
2022/01/24 14:19:36;;;;;;;36.00;20.70;;;;;;;;;;5142496;27;20031;-58
2022/01/24 14:22:04;;;;;;;35.50;20.48;;;;;;;;;;5144517;27;20071;-61
2022/01/24 14:24:45;;;;;;;36.20;22.20;;;;;;;;;;5146294;27;20103;-59
2022/01/24 14:27:12;;;;;;;34.38;19.75;;;;;;;;;;5146379;27;20043;-59
2022/01/24 14:29:39;;;;;;;34.33;19.97;;;;;;;;;;5150670;27;20067;-59
2022/01/24 14:32:13;;;;;;;36.60;20.95;;;;;;;;;;5140680;27;20532;-59
2022/01/24 14:34:40;;;;;;;37.13;21.08;;;;;;;;;;5147653;27;20043;-59
2022/01/24 14:37:07;;;;;;;34.38;21.13;;;;;;;;;;5144700;27;20087;-60
2022/01/24 14:39:42;;;;;;;33.00;20.30;;;;;;;;;;5148983;27;20046;-59
2022/01/24 14:42:12;;;;;;;36.53;23.05;;;;;;;;;;5140779;27;20046;-59
2022/01/24 14:44:53;;;;;;;36.40;20.95;;;;;;;;;;5148226;27;20060;-59
2022/01/24 14:47:21;;;;;;;35.03;21.23;;;;;;;;;;5143887;27;20410;-59
2022/01/24 14:49:47;;;;;;;39.67;22.15;;;;;;;;;;5145248;27;20055;-59
2022/01/24 14:52:17;;;;;;;38.30;22.98;;;;;;;;;;5139850;27;20099;-59
2022/01/24 14:54:43;;;;;;;33.75;21.48;;;;;;;;;;5146381;27;20047;-59
2022/01/24 14:57:12;;;;;;;39.63;22.27;;;;;;;;;;5144204;27;20050;-59
2022/01/24 14:59:42;;;;;;;37.53;23.23;;;;;;;;;;5145140;27;20125;-59
2022/01/24 15:02:08;;;;;;;34.15;21.38;;;;;;;;;;5153067;27;20047;-59
2022/01/24 15:04:34;;;;;;;36.35;19.85;;;;;;;;;;5146976;27;20041;-59
2022/01/24 15:07:00;;;;;;;32.67;19.73;;;;;;;;;;5146252;27;20054;-59
2022/01/24 15:09:28;;;;;;;33.72;20.48;;;;;;;;;;5144612;27;20074;-60
2022/01/24 15:11:56;;;;;;;36.40;20.77;;;;;;;;;;5145978;27;20051;-60
2022/01/24 15:14:27;;;;;;;43.65;21.13;;;;;;;;;;5135676;27;20395;-63
2022/01/24 15:27:41;;;;;;;39.70;21.98;;;;;;;;;;5136995;27;20139;-61
2022/01/24 15:30:08;;;;;;;37.53;21.33;;;;;;;;;;5143208;27;20047;-60
2022/01/24 15:32:35;;;;;;;37.33;23.17;;;;;;;;;;5144837;27;20351;-61
2022/01/24 15:35:04;;;;;;;38.40;22.05;;;;;;;;;;5144384;27;20114;-59
2022/01/24 15:37:30;;;;;;;34.42;21.85;;;;;;;;;;5145801;27;20031;-60
2022/01/24 15:39:56;;;;;;;36.45;21.92;;;;;;;;;;5145351;27;20043;-60
2022/01/24 15:49:56;;;;;;;40.47;23.17;;;;;;;;;;5143765;27;20039;-60
2022/01/24 15:52:23;;;;;;;38.17;22.67;;;;;;;;;;5143280;27;20047;-60
2022/01/24 15:54:52;;;;;;;40.38;23.70;;;;;;;;;;5139939;27;20059;-61
2022/01/24 16:00:05;;;;;;;35.30;21.90;;;;;;;;;;5143297;27;20043;-61
2022/01/24 16:02:31;;;;;;;38.28;23.05;;;;;;;;;;5144424;27;20077;-57
2022/01/24 16:04:58;;;;;;;42.38;23.67;;;;;;;;;;5146214;27;20095;-58
2022/01/24 16:07:24;;;;;;;40.72;22.98;;;;;;;;;;5144792;27;20098;-58
2022/01/24 16:09:50;;;;;;;37.42;23.52;;;;;;;;;;5145822;27;20051;-58
2022/01/24 16:12:17;;;;;;;43.35;23.58;;;;;;;;;;5145683;27;20094;-58
2022/01/24 16:14:43;;;;;;;48.72;25.05;;;;;;;;;;5145312;27;20047;-59
2022/01/24 16:17:09;;;;;;;44.28;26.05;;;;;;;;;;5136432;27;20065;-60
2022/01/24 16:19:39;;;;;;;42.88;25.17;;;;;;;;;;5137299;27;20635;-60
2022/01/24 16:27:11;;;;;;;44.40;25.67;;;;;;;;;;5146665;27;20043;-60
2022/01/24 16:29:37;;;;;;;43.80;24.25;;;;;;;;;;5143564;27;20043;-59
2022/01/24 16:32:04;;;;;;;41.60;25.23;;;;;;;;;;5133750;27;20040;-59
2022/01/24 16:34:30;;;;;;;48.67;25.83;;;;;;;;;;5138419;27;20086;-60
2022/01/24 16:36:57;;;;;;;49.05;27.27;;;;;;;;;;5143357;27;20043;-60
2022/01/24 16:39:29;;;;;;;40.55;24.75;;;;;;;;;;5144512;27;20043;-61
2022/01/24 16:42:02;;;;;;;48.35;26.60;;;;;;;;;;5137409;27;20047;-61
2022/01/24 16:47:08;;;;;;;44.88;26.00;;;;;;;;;;5146603;27;20047;-61
2022/01/24 16:49:38;;;;;;;43.85;26.75;;;;;;;;;;5137728;27;20052;-60
2022/01/24 16:52:05;;;;;;;47.33;25.75;;;;;;;;;;5139794;27;20035;-61
2022/01/24 16:54:32;;;;;;;43.35;25.13;;;;;;;;;;5142847;27;20069;-62
2022/01/24 16:56:59;;;;;;;44.90;26.90;;;;;;;;;;5143365;27;20050;-63
2022/01/24 16:59:25;;;;;;;48.33;27.58;;;;;;;;;;5142018;27;20111;-63
2022/01/24 17:01:51;;;;;;;49.85;27.10;;;;;;;;;;5141639;27;20043;-59
2022/01/24 17:04:19;;;;;;;47.85;27.95;;;;;;;;;;5139145;27;20410;-59
2022/01/24 17:06:45;;;;;;;46.00;27.80;;;;;;;;;;5143922;27;20502;-59
2022/01/24 17:09:12;;;;;;;46.67;27.23;;;;;;;;;;5145363;27;20047;-60
2022/01/24 17:11:43;;;;;;;51.78;28.63;;;;;;;;;;5145695;27;20046;-60